createdAt,value
2018-07-27T00:01:40.418Z,25.50
2018-07-27T00:05:05.084Z,25.40
2018-07-27T00:08:29.739Z,25.40
2018-07-27T00:11:54.257Z,25.30
2018-07-27T00:15:18.850Z,25.20
2018-07-27T00:18:43.386Z,25.10
2018-07-27T00:22:08.045Z,25.00
2018-07-27T00:25:32.603Z,24.90
2018-07-27T00:28:57.129Z,24.70
2018-07-27T00:32:21.570Z,24.70
2018-07-27T00:35:46.130Z,24.50
2018-07-27T00:39:11.190Z,24.50
2018-07-27T00:42:35.674Z,24.30
2018-07-27T00:46:09.346Z,24.20
2018-07-27T00:49:36.924Z,24.10
2018-07-27T00:53:01.556Z,24.00
2018-07-27T00:56:26.098Z,23.90
2018-07-27T00:59:50.512Z,23.80
2018-07-27T01:03:14.923Z,23.80
2018-07-27T01:06:39.402Z,23.70
2018-07-27T01:10:03.909Z,23.60
2018-07-27T01:13:28.427Z,23.60
2018-07-27T01:16:52.884Z,23.50
2018-07-27T01:20:17.348Z,23.50
2018-07-27T01:23:41.774Z,23.50
2018-07-27T01:27:06.293Z,23.40
2018-07-27T01:30:30.692Z,23.30
2018-07-27T01:33:55.226Z,23.20
2018-07-27T01:37:19.625Z,23.20
2018-07-27T01:40:44.037Z,23.10
2018-07-27T01:47:32.567Z,23.00
2018-07-27T01:50:57.421Z,23.00
2018-07-27T01:54:21.778Z,23.00
2018-07-27T01:57:46.185Z,22.90
2018-07-27T02:01:10.611Z,22.90
2018-07-27T02:04:35.033Z,22.80
2018-07-27T02:07:59.455Z,22.70
2018-07-27T02:11:23.883Z,22.60
2018-07-27T02:14:48.279Z,22.60
2018-07-27T02:18:12.729Z,22.50
2018-07-27T02:21:37.170Z,22.50
2018-07-27T02:25:01.565Z,22.40
2018-07-27T02:28:26.011Z,22.40
2018-07-27T02:31:50.567Z,22.30
2018-07-27T02:35:15.103Z,22.20
2018-07-27T02:38:39.693Z,22.10
2018-07-27T02:42:04.264Z,22.00
2018-07-27T02:45:28.774Z,22.00
2018-07-27T02:48:53.551Z,21.90
2018-07-27T02:55:42.265Z,21.80
2018-07-27T02:59:06.841Z,21.80
2018-07-27T03:02:31.379Z,21.70
2018-07-27T03:05:56.268Z,21.70
2018-07-27T03:09:20.765Z,21.60
2018-07-27T03:12:45.309Z,21.50
2018-07-27T03:16:09.833Z,21.50
2018-07-27T03:19:34.397Z,21.40
2018-07-27T03:22:58.949Z,21.40
2018-07-27T03:26:23.543Z,21.30
2018-07-27T03:29:48.035Z,21.30
2018-07-27T03:33:12.646Z,21.20
2018-07-27T03:36:37.208Z,21.20
2018-07-27T03:40:01.775Z,21.20
2018-07-27T03:43:26.248Z,21.20
2018-07-27T03:46:50.757Z,21.10
2018-07-27T03:50:15.274Z,21.10
2018-07-27T03:53:39.762Z,21.10
2018-07-27T03:57:04.339Z,21.10
2018-07-27T04:00:28.902Z,21.00
2018-07-27T04:03:53.834Z,21.00
2018-07-27T04:07:24.677Z,21.00
2018-07-27T04:10:49.115Z,21.00
2018-07-27T04:14:13.565Z,21.00
2018-07-27T04:17:38.024Z,21.10
2018-07-27T04:21:02.463Z,21.20
2018-07-27T04:24:26.903Z,21.30
2018-07-27T04:27:51.442Z,21.40
2018-07-27T04:31:15.965Z,21.40
2018-07-27T04:34:40.614Z,21.40
2018-07-27T04:38:05.197Z,21.50
2018-07-27T04:41:29.742Z,21.50
2018-07-27T04:44:54.253Z,21.50
2018-07-27T04:48:18.699Z,21.50
2018-07-27T04:51:43.141Z,21.60
2018-07-27T04:55:07.695Z,21.60
2018-07-27T04:58:32.118Z,21.70
2018-07-27T05:01:56.530Z,21.70
2018-07-27T05:05:21.072Z,21.70
2018-07-27T05:08:50.687Z,21.80
2018-07-27T05:12:15.161Z,21.80
2018-07-27T05:15:39.624Z,21.90
2018-07-27T05:19:04.017Z,21.90
2018-07-27T05:22:28.424Z,22.00
2018-07-27T05:25:52.850Z,22.10
2018-07-27T05:29:17.262Z,22.10
2018-07-27T05:32:41.738Z,22.20
2018-07-27T05:36:06.407Z,22.30
2018-07-27T05:39:30.935Z,22.30
2018-07-27T05:42:55.409Z,22.40
2018-07-27T05:46:19.877Z,22.50
2018-07-27T05:49:44.333Z,22.60
2018-07-27T05:53:08.865Z,22.70
2018-07-27T05:56:33.359Z,22.80
2018-07-27T05:59:57.884Z,23.00
2018-07-27T06:03:22.467Z,23.10
2018-07-27T06:06:47.005Z,23.20
2018-07-27T06:10:11.608Z,23.40
2018-07-27T06:13:36.104Z,23.50
2018-07-27T06:17:00.619Z,23.70
2018-07-27T06:20:25.100Z,23.80
2018-07-27T06:23:49.694Z,24.00
2018-07-27T06:27:14.125Z,24.20
2018-07-27T06:30:38.899Z,24.40
2018-07-27T06:34:03.349Z,24.50
2018-07-27T06:37:27.841Z,24.60
2018-07-27T06:40:52.399Z,24.90
2018-07-27T06:44:16.874Z,25.10
2018-07-27T06:47:41.341Z,25.20
2018-07-27T06:51:05.802Z,25.30
2018-07-27T06:54:30.458Z,25.50
2018-07-27T06:57:55.198Z,25.80
2018-07-27T07:01:19.682Z,25.90
2018-07-27T07:04:44.167Z,26.00
2018-07-27T07:08:08.690Z,26.20
2018-07-27T07:11:33.193Z,26.30
2018-07-27T07:14:57.687Z,26.50
2018-07-27T07:18:22.130Z,26.50
2018-07-27T07:21:46.575Z,26.60
2018-07-27T07:25:11.051Z,26.70
2018-07-27T07:28:35.414Z,26.80
2018-07-27T07:31:59.851Z,27.00
2018-07-27T07:35:24.331Z,27.10
2018-07-27T07:38:48.817Z,27.10
2018-07-27T07:42:13.287Z,27.30
2018-07-27T07:45:37.742Z,27.50
2018-07-27T07:49:04.124Z,27.60
2018-07-27T07:52:28.623Z,27.70
2018-07-27T07:55:53.070Z,27.80
2018-07-27T07:59:17.501Z,27.90
2018-07-27T08:02:42.003Z,28.10
2018-07-27T08:06:06.873Z,28.20
2018-07-27T08:09:31.310Z,28.40
2018-07-27T08:12:55.771Z,28.50
2018-07-27T08:16:20.231Z,28.60
2018-07-27T08:19:44.644Z,28.80
2018-07-27T08:26:39.317Z,29.10
2018-07-27T08:30:03.782Z,29.30
2018-07-27T08:33:28.207Z,29.40
2018-07-27T08:36:52.945Z,29.50
2018-07-27T08:40:17.352Z,29.60
2018-07-27T08:43:41.745Z,29.70
2018-07-27T08:47:06.278Z,29.90
2018-07-27T08:50:30.727Z,30.00
2018-07-27T08:53:55.638Z,30.20
2018-07-27T08:57:20.063Z,30.40
2018-07-27T09:00:54.715Z,30.50
2018-07-27T09:04:19.171Z,30.70
2018-07-27T09:07:43.578Z,30.80
2018-07-27T09:11:08.023Z,30.90
2018-07-27T09:14:32.487Z,31.00
2018-07-27T09:17:56.921Z,31.10
2018-07-27T09:21:21.436Z,31.30
2018-07-27T09:24:46.003Z,31.50
2018-07-27T09:28:10.484Z,31.70
2018-07-27T09:31:34.966Z,31.90
2018-07-27T09:34:59.359Z,32.10
2018-07-27T09:38:23.773Z,32.30
2018-07-27T09:41:48.293Z,32.50
2018-07-27T09:45:12.839Z,32.60
2018-07-27T09:48:37.344Z,32.70
2018-07-27T09:52:01.788Z,32.90
2018-07-27T09:55:26.385Z,33.20
2018-07-27T09:58:50.856Z,33.60
2018-07-27T10:02:15.294Z,34.10
2018-07-27T10:05:39.779Z,34.40
2018-07-27T10:09:04.958Z,34.80
2018-07-27T10:12:29.562Z,35.20
2018-07-27T10:15:54.011Z,35.50
2018-07-27T10:19:18.475Z,36.00
2018-07-27T10:22:42.977Z,36.30
2018-07-27T10:26:07.422Z,36.60
2018-07-27T10:29:31.909Z,37.20
2018-07-27T10:32:56.364Z,37.70
2018-07-27T10:36:20.807Z,37.80
2018-07-27T10:39:45.212Z,38.50
2018-07-27T10:43:09.675Z,38.90
2018-07-27T10:46:34.090Z,39.20
2018-07-27T10:49:58.543Z,39.40
2018-07-27T10:53:22.978Z,39.60
2018-07-27T10:56:47.392Z,40.20
2018-07-27T11:00:15.675Z,41.10
2018-07-27T11:03:40.186Z,41.80
2018-07-27T11:07:04.663Z,42.10
2018-07-27T11:10:29.128Z,42.30
2018-07-27T11:13:53.522Z,42.60
2018-07-27T11:17:18.024Z,42.70
2018-07-27T11:20:42.492Z,43.30
2018-07-27T11:24:07.006Z,43.50
2018-07-27T11:27:31.570Z,43.80
2018-07-27T11:30:56.062Z,43.80
2018-07-27T11:34:20.472Z,44.00
2018-07-27T11:37:44.969Z,44.00
2018-07-27T11:41:09.440Z,44.50
2018-07-27T11:44:33.868Z,44.70
2018-07-27T11:47:58.317Z,45.30
2018-07-27T11:51:23.359Z,45.20
2018-07-27T11:54:47.875Z,44.90
2018-07-27T11:58:12.539Z,44.50
2018-07-27T12:01:37.129Z,44.40
2018-07-27T12:05:01.666Z,44.90
2018-07-27T12:08:26.163Z,44.70
2018-07-27T12:11:50.659Z,44.80
2018-07-27T12:15:15.289Z,45.30
2018-07-27T12:18:39.678Z,45.70
2018-07-27T12:22:04.151Z,46.20
2018-07-27T12:25:28.669Z,46.60
2018-07-27T12:28:53.197Z,46.80
2018-07-27T12:32:17.686Z,46.90
2018-07-27T12:35:42.207Z,47.00
2018-07-27T12:39:10.666Z,47.40
2018-07-27T12:42:35.209Z,47.50
2018-07-27T12:45:59.731Z,47.40
2018-07-27T12:49:24.301Z,47.70
2018-07-27T12:52:48.869Z,48.30
2018-07-27T12:56:13.447Z,48.30
2018-07-27T12:59:37.998Z,48.30
2018-07-27T13:03:02.592Z,48.10
2018-07-27T13:06:27.164Z,47.70
2018-07-27T13:09:55.740Z,47.40
2018-07-27T13:13:20.222Z,47.60
2018-07-27T13:16:44.620Z,47.90
2018-07-27T13:20:09.128Z,48.30
2018-07-27T13:23:33.551Z,48.60
2018-07-27T13:26:57.989Z,47.90
2018-07-27T13:30:22.482Z,47.80
2018-07-27T13:34:06.290Z,47.80
2018-07-27T13:37:32.175Z,47.40
2018-07-27T13:40:56.861Z,47.80
2018-07-27T13:44:21.267Z,47.70
2018-07-27T13:47:45.700Z,48.50
2018-07-27T13:51:10.173Z,48.70
2018-07-27T13:54:35.360Z,49.40
2018-07-27T13:57:59.827Z,49.20
2018-07-27T14:01:24.256Z,49.80
2018-07-27T14:04:48.667Z,49.80
2018-07-27T14:08:13.136Z,49.70
2018-07-27T14:11:37.591Z,50.40
2018-07-27T14:15:02.093Z,51.00
2018-07-27T14:18:26.577Z,51.70
2018-07-27T14:21:51.093Z,52.10
2018-07-27T14:25:15.571Z,52.20
2018-07-27T14:28:40.096Z,52.40
2018-07-27T14:32:04.621Z,52.40
2018-07-27T14:35:29.103Z,52.90
2018-07-27T14:38:53.721Z,52.70
2018-07-27T14:45:42.487Z,52.40
2018-07-27T14:49:12.808Z,52.80
2018-07-27T14:52:37.440Z,53.60
2018-07-27T14:56:02.222Z,53.70
2018-07-27T14:59:31.716Z,53.90
2018-07-27T15:02:56.153Z,53.90
2018-07-27T15:06:20.628Z,53.40
2018-07-27T15:09:45.076Z,54.10
2018-07-27T15:13:09.558Z,54.10
2018-07-27T15:16:34.288Z,55.20
2018-07-27T15:19:58.833Z,55.30
2018-07-27T15:23:23.257Z,55.50
2018-07-27T15:26:47.716Z,55.10
2018-07-27T15:30:12.566Z,55.60
2018-07-27T15:33:37.240Z,56.00
2018-07-27T15:37:01.840Z,56.00
2018-07-27T15:40:26.248Z,56.10
2018-07-27T15:43:50.796Z,56.40
2018-07-27T15:50:39.504Z,55.60
2018-07-27T15:54:03.918Z,54.70
2018-07-27T15:57:28.372Z,55.30
2018-07-27T16:00:52.834Z,54.80
2018-07-27T16:04:17.265Z,54.70
2018-07-27T16:07:41.714Z,54.10
2018-07-27T16:11:06.353Z,53.50
2018-07-27T16:14:30.789Z,52.50
2018-07-27T16:17:55.558Z,51.60
2018-07-27T16:21:20.038Z,50.40
2018-07-27T16:24:44.490Z,50.20
2018-07-27T16:28:09.132Z,50.70
2018-07-27T16:31:33.612Z,49.10
2018-07-27T16:34:58.144Z,47.30
2018-07-27T16:38:22.769Z,46.20
2018-07-27T16:41:47.376Z,46.50
2018-07-27T16:45:11.845Z,47.40
2018-07-27T16:48:36.446Z,48.00
2018-07-27T16:52:01.080Z,48.40
2018-07-27T16:55:25.622Z,47.90
2018-07-27T16:58:50.153Z,47.60
2018-07-27T17:02:14.633Z,47.40
2018-07-27T17:05:39.253Z,47.00
2018-07-27T17:09:05.356Z,45.30
2018-07-27T17:12:29.890Z,43.60
2018-07-27T17:15:54.376Z,42.60
2018-07-27T17:19:18.880Z,41.70
2018-07-27T17:22:43.373Z,40.90
2018-07-27T17:26:07.925Z,40.10
2018-07-27T17:29:32.462Z,39.70
2018-07-27T17:32:56.862Z,39.30
2018-07-27T17:36:21.347Z,38.90
2018-07-27T17:39:45.760Z,38.60
2018-07-27T17:43:10.263Z,38.30
2018-07-27T17:46:34.666Z,38.00
2018-07-27T17:49:59.091Z,37.70
2018-07-27T17:53:23.576Z,37.40
2018-07-27T17:56:48.249Z,37.10
2018-07-27T18:00:12.813Z,36.90
2018-07-27T18:03:37.266Z,36.80
2018-07-27T18:07:01.849Z,36.40
2018-07-27T18:10:26.277Z,36.10
2018-07-27T18:13:50.847Z,36.00
2018-07-27T18:17:15.367Z,35.80
2018-07-27T18:20:40.058Z,35.70
2018-07-27T18:24:04.495Z,35.60
2018-07-27T18:27:29.062Z,35.50
2018-07-27T18:30:53.621Z,35.30
2018-07-27T18:34:24.742Z,35.20
2018-07-27T18:37:49.289Z,35.00
2018-07-27T18:41:13.813Z,34.80
2018-07-27T18:44:38.353Z,34.50
2018-07-27T18:48:02.967Z,34.30
2018-07-27T18:51:27.541Z,34.10
2018-07-27T18:54:52.095Z,33.90
2018-07-27T18:58:16.648Z,33.80
2018-07-27T19:01:41.190Z,33.60
2018-07-27T19:05:06.145Z,33.30
2018-07-27T19:08:30.656Z,33.00
2018-07-27T19:11:55.325Z,32.80
2018-07-27T19:15:19.910Z,32.60
2018-07-27T19:18:44.447Z,32.50
2018-07-27T19:22:09.203Z,32.30
2018-07-27T19:25:33.714Z,32.20
2018-07-27T19:28:58.243Z,32.10
2018-07-27T19:32:23.059Z,31.90
2018-07-27T19:35:47.595Z,31.80
2018-07-27T19:39:12.965Z,31.70
2018-07-27T19:42:37.600Z,31.50
2018-07-27T19:46:02.274Z,31.30
2018-07-27T19:49:26.811Z,31.20
2018-07-27T19:52:51.463Z,31.00
2018-07-27T19:56:15.990Z,30.80
2018-07-27T19:59:40.747Z,30.70
2018-07-27T20:03:05.546Z,30.60
2018-07-27T20:06:30.035Z,30.40
2018-07-27T20:09:54.881Z,30.20
2018-07-27T20:13:19.345Z,30.10
2018-07-27T20:16:44.730Z,30.00
2018-07-27T20:20:09.863Z,29.80
2018-07-27T20:23:34.298Z,29.70
2018-07-27T20:26:58.783Z,29.60
2018-07-27T20:30:23.224Z,29.50
2018-07-27T20:33:47.697Z,29.30
2018-07-27T20:37:12.144Z,29.20
2018-07-27T20:40:36.633Z,29.20
2018-07-27T20:44:01.132Z,29.10
2018-07-27T20:47:25.535Z,29.00
2018-07-27T20:50:50.082Z,29.00
2018-07-27T20:54:14.522Z,28.90
2018-07-27T20:57:39.310Z,28.80
2018-07-27T21:01:03.829Z,28.80
2018-07-27T21:04:28.410Z,28.80
2018-07-27T21:07:52.884Z,28.70
2018-07-27T21:11:17.332Z,28.70
2018-07-27T21:14:41.873Z,28.70
2018-07-27T21:18:06.381Z,28.70
2018-07-27T21:21:31.191Z,28.60
2018-07-27T21:24:55.701Z,28.60
2018-07-27T21:31:44.507Z,28.40
2018-07-27T21:35:09.083Z,28.30
2018-07-27T21:38:33.601Z,28.30
2018-07-27T21:41:58.084Z,28.20
2018-07-27T21:45:22.632Z,28.20
2018-07-27T21:48:47.150Z,28.10
2018-07-27T21:52:11.778Z,28.10
2018-07-27T21:55:36.319Z,28.10
2018-07-27T21:59:00.813Z,28.10
2018-07-27T22:02:25.572Z,27.90
2018-07-27T22:05:50.062Z,27.90
2018-07-27T22:09:14.606Z,27.70
2018-07-27T22:12:39.194Z,27.70
2018-07-27T22:16:04.068Z,27.60
2018-07-27T22:19:28.550Z,27.60
2018-07-27T22:22:54.128Z,27.70
2018-07-27T22:26:20.156Z,27.70
2018-07-27T22:29:45.430Z,27.70
2018-07-27T22:33:10.667Z,27.70
2018-07-27T22:36:35.726Z,27.70
2018-07-27T22:40:01.298Z,27.80
2018-07-27T22:43:25.863Z,27.80
2018-07-27T22:46:50.546Z,27.90
2018-07-27T22:50:15.221Z,27.90
2018-07-27T22:53:40.020Z,27.90
2018-07-27T22:57:04.687Z,28.00
2018-07-27T23:00:29.346Z,27.90
2018-07-27T23:03:53.956Z,27.90
2018-07-27T23:07:18.515Z,27.90
2018-07-27T23:10:43.028Z,27.90
2018-07-27T23:14:07.726Z,27.90
2018-07-27T23:17:32.294Z,27.90
2018-07-27T23:20:56.991Z,27.90
2018-07-27T23:24:21.596Z,27.90
2018-07-27T23:27:46.176Z,27.90
2018-07-27T23:31:10.857Z,27.90
2018-07-27T23:34:35.370Z,27.90
2018-07-27T23:37:59.986Z,27.80
2018-07-27T23:41:24.523Z,27.90
2018-07-27T23:44:49.128Z,27.80
2018-07-27T23:48:13.621Z,27.70
2018-07-27T23:51:38.207Z,27.70
2018-07-27T23:55:02.795Z,27.70
2018-07-27T23:58:27.947Z,27.60
